This is the latest recevied weather packets stored in our database for station/object DG5TS-10. If no packets are shown the sender has not sent any weather packets the latest 10 day(s).
| Time | Temp. | Humidity | Pressure | Rain* | Wind** | Luminosity | Snow |
|---|---|---|---|---|---|---|---|
| 1777574373 | 25° C | 18% | 1029.9 hPa | - | - | - | - |
| 1777573473 | 26.11° C | 18% | 1029.9 hPa | - | - | - | - |
| 1777572572 | 26.67° C | 17% | 1029.9 hPa | - | - | - | - |
| 1777571672 | 27.78° C | 15% | 1029.9 hPa | - | - | - | - |
| 1777570772 | 28.89° C | 14% | 1030 hPa | - | - | - | - |
| 1777569872 | 30.56° C | 13% | 1029.9 hPa | - | - | - | - |
| 1777568971 | 33.89° C | 10% | 1030 hPa | - | - | - | - |
| 1777568071 | 35° C | 10% | 1030.1 hPa | - | - | - | - |
| 1777567171 | 36.11° C | 9% | 1030.3 hPa | - | - | - | - |
| 1777566271 | 36.11° C | 8% | 1030.4 hPa | - | - | - | - |
| 1777565371 | 35° C | 8% | 1030.5 hPa | - | - | - | - |
| 1777564470 | 29.44° C | 11% | 1030.5 hPa | - | - | - | - |
| 1777563570 | 30.56° C | 10% | 1030.5 hPa | - | - | - | - |
| 1777562670 | 31.11° C | 9% | 1030.7 hPa | - | - | - | - |
| 1777561770 | 32.78° C | 8% | 1030.7 hPa | - | - | - | - |
| 1777560870 | 36.67° C | 7% | 1030.7 hPa | - | - | - | - |
| 1777559970 | 32.22° C | 9% | 1031 hPa | - | - | - | - |
| 1777559070 | 31.67° C | 8% | 1031.1 hPa | - | - | - | - |
| 1777558170 | 36.11° C | 8% | 1031.2 hPa | - | - | - | - |
| 1777557269 | 36.67° C | 7% | 1031.3 hPa | - | - | - | - |
| 1777556369 | 32.22° C | 11% | 1031.3 hPa | - | - | - | - |
| 1777555469 | 30° C | 12% | 1031.4 hPa | - | - | - | - |
| 1777554569 | 27.78° C | 13% | 1031.7 hPa | - | - | - | - |
| 1777553669 | 30° C | 11% | 1031.8 hPa | - | - | - | - |
| 1777552769 | 29.44° C | 13% | 1032.1 hPa | - | - | - | - |
* Rain since midnight (hover to see other rain measurements)
** Current wind speed in m/s (hover to see current wind gust speed)